Time;durP1;ratioP1;P1;durP2;ratioP2;P2;SDS_P1;SDS_P2;PMS_P1;PMS_P2;Temp;Humidity;BMP_temperature;BMP_pressure;BME280_temperature;BME280_humidity;BME280_pressure;Samples;Min_cycle;Max_cycle;Signal;HPM_P1;HPM_P2
2020/12/31 00:00:08;;;;;;;4.85;2.00;;;18.00;49.70;;;;;;5095380;28;20020;-44
2020/12/31 00:02:35;;;;;;;4.38;1.90;;;18.00;49.10;;;;;;5095247;28;20031;-44
2020/12/31 00:05:02;;;;;;;4.72;1.95;;;17.90;49.20;;;;;;5077893;28;20107;-44
2020/12/31 00:07:28;;;;;;;3.55;2.10;;;17.90;49.20;;;;;;5095237;28;20026;-44
2020/12/31 00:09:55;;;;;;;4.38;2.15;;;17.80;49.20;;;;;;5095175;28;20023;-44
2020/12/31 00:12:21;;;;;;;4.57;2.10;;;17.80;49.30;;;;;;5095104;28;20027;-44
2020/12/31 00:14:48;;;;;;;3.85;1.83;;;17.70;49.30;;;;;;5095070;28;20024;-44
2020/12/31 00:17:15;;;;;;;5.18;2.05;;;17.70;49.30;;;;;;5095028;28;20024;-44
2020/12/31 00:22:26;;;;;;;4.32;2.17;;;17.60;49.40;;;;;;5093584;28;20385;-44
2020/12/31 00:24:52;;;;;;;26.58;10.15;;;17.60;49.50;;;;;;5094376;28;20028;-45
2020/12/31 00:27:19;;;;;;;14.43;8.35;;;17.60;50.00;;;;;;5095276;28;20061;-45
2020/12/31 00:29:45;;;;;;;20.52;8.63;;;17.50;50.10;;;;;;5094583;28;20035;-44
2020/12/31 00:32:12;;;;;;;15.27;5.38;;;17.50;50.10;;;;;;5094077;28;20381;-44
2020/12/31 00:34:38;;;;;;;68.97;30.30;;;17.50;50.10;;;;;;5094571;28;20169;-44
2020/12/31 00:37:05;;;;;;;27.88;11.70;;;17.50;50.40;;;;;;5094330;28;20024;-44
2020/12/31 00:39:31;;;;;;;14.55;7.50;;;17.40;50.40;;;;;;5094908;28;20454;-44
2020/12/31 00:41:58;;;;;;;15.25;6.95;;;17.40;50.60;;;;;;5093908;28;20369;-44
2020/12/31 00:44:24;;;;;;;19.45;7.88;;;17.30;50.60;;;;;;5094280;28;20024;-44
2020/12/31 00:46:51;;;;;;;24.75;7.88;;;17.30;50.80;;;;;;5094540;28;20070;-44
2020/12/31 00:49:17;;;;;;;14.93;7.93;;;17.30;50.90;;;;;;5094002;28;20035;-45
2020/12/31 00:51:44;;;;;;;15.65;8.10;;;17.30;51.00;;;;;;5076144;28;20115;-44
2020/12/31 00:54:10;;;;;;;16.42;8.40;;;17.30;51.10;;;;;;5094120;28;20085;-44
2020/12/31 00:56:37;;;;;;;23.30;8.95;;;17.40;51.20;;;;;;5094367;28;20020;-45
2020/12/31 00:59:03;;;;;;;24.08;8.35;;;17.40;51.20;;;;;;5093982;28;20032;-45
2020/12/31 01:01:30;;;;;;;18.05;7.40;;;17.40;51.30;;;;;;5093620;28;20024;-45
2020/12/31 01:03:56;;;;;;;19.25;6.95;;;17.50;51.30;;;;;;5094284;28;20024;-44
2020/12/31 01:06:23;;;;;;;20.00;7.38;;;17.50;51.30;;;;;;5093783;28;20469;-44
2020/12/31 01:08:49;;;;;;;18.42;6.82;;;17.60;51.30;;;;;;5094459;28;20034;-45
2020/12/31 01:11:18;;;;;;;15.05;7.13;;;17.70;52.00;;;;;;5094143;28;20457;-45
2020/12/31 01:13:45;;;;;;;18.55;6.65;;;17.70;51.30;;;;;;5093987;28;20032;-44
2020/12/31 01:16:12;;;;;;;21.40;6.50;;;17.80;51.30;;;;;;5093279;28;20032;-44
2020/12/31 01:18:38;;;;;;;14.30;6.65;;;17.90;51.20;;;;;;5093695;28;20362;-45
2020/12/31 01:21:10;;;;;;;17.63;6.75;;;18.00;51.20;;;;;;5096094;28;20035;-45
2020/12/31 01:23:37;;;;;;;24.98;6.90;;;18.10;51.20;;;;;;5100907;28;20476;-44
2020/12/31 01:26:03;;;;;;;16.33;6.10;;;18.10;51.20;;;;;;5093267;28;20059;-44
2020/12/31 01:28:30;;;;;;;15.88;6.38;;;18.20;51.10;;;;;;5093201;28;20488;-44
2020/12/31 01:30:56;;;;;;;18.35;6.43;;;18.30;51.00;;;;;;5093912;28;20107;-44
2020/12/31 01:33:23;;;;;;;20.08;6.57;;;18.40;51.00;;;;;;5075319;28;20040;-44
2020/12/31 01:35:49;;;;;;;14.38;5.90;;;18.50;50.90;;;;;;5076317;28;20027;-45
2020/12/31 01:38:16;;;;;;;15.25;5.50;;;18.60;50.80;;;;;;5093778;28;20020;-44
2020/12/31 01:40:52;;;;;;;18.13;5.75;;;18.70;50.70;;;;;;5073251;28;20401;-44
2020/12/31 01:43:18;;;;;;;14.30;5.47;;;18.80;50.50;;;;;;5073341;28;20044;-44
2020/12/31 01:45:45;;;;;;;14.05;5.10;;;18.80;50.40;;;;;;5074113;28;20042;-44
2020/12/31 01:48:11;;;;;;;10.68;4.60;;;18.90;50.30;;;;;;5073148;28;20025;-44
2020/12/31 01:50:38;;;;;;;11.65;5.15;;;19.00;50.20;;;;;;5073230;28;20025;-44
2020/12/31 01:53:04;;;;;;;11.93;5.25;;;19.10;50.10;;;;;;5073607;28;20089;-44
2020/12/31 01:55:32;;;;;;;11.70;4.60;;;19.10;50.00;;;;;;5077508;28;20033;-44
2020/12/31 01:57:59;;;;;;;10.02;4.78;;;19.20;49.80;;;;;;5077696;28;20063;-44
2020/12/31 02:00:25;;;;;;;15.88;5.25;;;19.20;49.80;;;;;;5077449;28;20016;-44
2020/12/31 02:02:52;;;;;;;12.00;4.20;;;19.30;49.60;;;;;;5077121;28;20025;-45
2020/12/31 02:05:18;;;;;;;10.48;4.28;;;19.30;49.60;;;;;;5077253;28;20029;-45
2020/12/31 02:07:47;;;;;;;13.85;4.68;;;19.40;49.60;;;;;;5077342;28;20020;-46
2020/12/31 02:10:16;;;;;;;18.45;8.48;;;19.40;49.40;;;;;;5077268;28;20032;-44
2020/12/31 02:12:43;;;;;;;12.93;5.00;;;19.40;49.40;;;;;;5094498;28;20545;-45
2020/12/31 02:15:19;;;;;;;17.77;4.70;;;19.50;49.30;;;;;;5092200;28;20129;-44
2020/12/31 02:17:45;;;;;;;10.18;4.75;;;19.50;49.30;;;;;;5096983;28;20020;-45
2020/12/31 02:20:13;;;;;;;19.40;4.90;;;19.50;49.30;;;;;;5096418;28;20042;-44
2020/12/31 02:22:40;;;;;;;11.35;4.22;;;19.50;49.30;;;;;;5096769;28;20114;-44
2020/12/31 02:25:06;;;;;;;14.30;5.32;;;19.60;49.30;;;;;;5096626;28;20026;-44
2020/12/31 02:27:33;;;;;;;11.90;4.80;;;19.60;49.30;;;;;;5097352;28;20068;-44
2020/12/31 02:30:00;;;;;;;12.85;4.82;;;19.60;49.30;;;;;;5096782;28;20420;-45
2020/12/31 02:32:26;;;;;;;11.63;3.97;;;19.70;49.30;;;;;;5096832;28;20024;-45
2020/12/31 02:34:53;;;;;;;10.55;4.03;;;19.70;49.20;;;;;;5096936;28;20039;-45
2020/12/31 02:37:19;;;;;;;7.15;4.10;;;19.80;49.10;;;;;;5096953;28;20082;-46
2020/12/31 02:39:46;;;;;;;9.63;4.20;;;19.90;49.10;;;;;;5097444;28;20055;-44
2020/12/31 02:42:12;;;;;;;15.45;4.25;;;20.00;49.00;;;;;;5096853;28;20080;-44
2020/12/31 02:44:39;;;;;;;12.02;3.83;;;20.00;49.00;;;;;;5096778;28;20031;-44
2020/12/31 02:47:05;;;;;;;8.60;3.80;;;20.10;48.90;;;;;;5096697;28;20024;-44
2020/12/31 02:49:32;;;;;;;10.27;4.00;;;20.20;48.70;;;;;;5096775;28;20028;-45
2020/12/31 02:51:58;;;;;;;11.13;3.80;;;20.40;48.70;;;;;;5096719;28;20103;-44
2020/12/31 02:54:25;;;;;;;8.73;3.70;;;20.50;48.50;;;;;;5096686;28;20050;-44
2020/12/31 02:56:51;;;;;;;8.48;3.88;;;20.60;48.40;;;;;;5096653;28;20089;-44
2020/12/31 02:59:18;;;;;;;9.00;3.58;;;20.70;48.20;;;;;;5096856;28;20032;-45
2020/12/31 03:01:44;;;;;;;9.25;3.95;;;20.90;48.10;;;;;;5096600;28;20032;-45
2020/12/31 03:04:10;;;;;;;6.38;3.60;;;21.00;47.90;;;;;;5095471;28;20031;-45
2020/12/31 03:06:37;;;;;;;19.40;3.92;;;21.10;47.70;;;;;;5096386;28;20028;-44
2020/12/31 03:09:04;;;;;;;14.25;4.10;;;21.30;47.60;;;;;;5096293;28;20495;-45
2020/12/31 03:11:30;;;;;;;11.32;4.10;;;21.40;47.40;;;;;;5096003;28;20062;-44
2020/12/31 03:13:57;;;;;;;10.68;3.47;;;21.50;47.20;;;;;;5095652;28;20114;-46
2020/12/31 03:16:23;;;;;;;12.32;3.70;;;21.60;47.00;;;;;;5096820;28;20107;-46
2020/12/31 03:18:49;;;;;;;8.45;3.70;;;21.70;46.90;;;;;;5096216;28;20024;-44
2020/12/31 03:21:16;;;;;;;9.55;3.35;;;21.80;46.70;;;;;;5096164;28;20024;-45
2020/12/31 03:23:43;;;;;;;7.65;3.05;;;21.90;46.50;;;;;;5096672;28;20024;-45
2020/12/31 03:26:10;;;;;;;19.58;4.40;;;21.90;46.30;;;;;;5096326;28;20024;-45
2020/12/31 03:28:37;;;;;;;13.65;3.67;;;22.00;46.20;;;;;;5095837;28;20024;-45
2020/12/31 03:31:03;;;;;;;20.35;4.10;;;22.00;46.10;;;;;;5096211;28;20169;-46
2020/12/31 03:33:30;;;;;;;12.30;3.53;;;22.10;46.00;;;;;;5095560;28;20066;-45
2020/12/31 03:35:56;;;;;;;9.98;3.78;;;22.20;45.90;;;;;;5095784;28;20028;-46
2020/12/31 03:38:23;;;;;;;18.00;4.32;;;22.30;45.90;;;;;;5095505;28;20482;-46
2020/12/31 03:40:50;;;;;;;15.13;3.78;;;22.30;45.70;;;;;;5095465;28;20028;-46
2020/12/31 03:43:17;;;;;;;9.85;3.17;;;22.50;45.70;;;;;;5095463;28;20048;-46
2020/12/31 03:45:44;;;;;;;9.85;3.10;;;22.60;45.70;;;;;;5095889;28;20034;-46
2020/12/31 03:48:11;;;;;;;9.38;2.85;;;22.70;45.50;;;;;;5095528;28;20034;-45
2020/12/31 03:50:38;;;;;;;9.48;3.08;;;22.80;45.40;;;;;;5095568;28;20090;-45
2020/12/31 03:53:05;;;;;;;18.23;3.40;;;22.90;45.30;;;;;;5095265;28;20082;-45
2020/12/31 03:55:32;;;;;;;19.60;3.03;;;23.10;45.20;;;;;;5095429;28;20042;-45
2020/12/31 03:57:59;;;;;;;12.32;3.30;;;23.10;44.90;;;;;;5095465;28;20053;-45
2020/12/31 04:00:26;;;;;;;6.85;2.90;;;23.30;44.80;;;;;;5094661;28;20534;-45
2020/12/31 04:02:52;;;;;;;9.50;2.88;;;23.40;44.60;;;;;;5095225;28;20457;-45
2020/12/31 04:05:19;;;;;;;10.07;2.65;;;23.60;44.50;;;;;;5094919;28;20469;-44
2020/12/31 04:07:46;;;;;;;13.95;3.05;;;23.70;44.20;;;;;;5094884;28;20145;-44
2020/12/31 04:10:13;;;;;;;5.70;2.50;;;23.80;44.00;;;;;;5095102;28;20020;-45
2020/12/31 04:12:39;;;;;;;7.03;2.78;;;23.90;43.90;;;;;;5095065;28;20436;-46
2020/12/31 04:15:06;;;;;;;12.85;3.42;;;24.00;43.70;;;;;;5095046;28;20039;-46
2020/12/31 04:17:32;;;;;;;14.18;2.80;;;24.10;43.60;;;;;;5093988;28;20035;-46
2020/12/31 04:19:59;;;;;;;7.88;2.83;;;24.20;43.40;;;;;;5094989;28;20026;-46
2020/12/31 04:22:27;;;;;;;8.00;3.05;;;24.30;43.30;;;;;;5094994;28;20027;-45
2020/12/31 04:24:55;;;;;;;12.20;3.17;;;24.40;43.30;;;;;;5094964;28;20020;-45
2020/12/31 04:27:22;;;;;;;11.68;3.05;;;24.40;43.10;;;;;;5094886;28;20028;-45
2020/12/31 04:29:49;;;;;;;10.05;3.38;;;24.50;43.00;;;;;;5094336;28;20031;-45
2020/12/31 04:32:15;;;;;;;12.07;3.00;;;24.60;43.00;;;;;;5076526;28;20062;-45
2020/12/31 04:34:42;;;;;;;11.35;3.30;;;24.70;42.90;;;;;;5094494;28;20060;-45
2020/12/31 04:37:09;;;;;;;6.75;2.97;;;24.80;42.80;;;;;;5094724;28;20032;-45
2020/12/31 04:39:35;;;;;;;7.05;3.13;;;24.80;42.70;;;;;;5094682;28;20035;-45
2020/12/31 04:42:02;;;;;;;8.60;3.03;;;25.00;42.50;;;;;;5094457;28;20423;-46
2020/12/31 04:44:29;;;;;;;8.55;3.17;;;25.10;42.50;;;;;;5094416;28;20047;-45
2020/12/31 04:46:57;;;;;;;6.38;3.35;;;25.20;42.20;;;;;;5094836;28;20032;-46
2020/12/31 04:49:49;;;;;;;8.05;3.20;;;25.30;42.20;;;;;;5094518;28;20024;-46
2020/12/31 04:52:16;;;;;;;9.57;2.78;;;25.40;42.00;;;;;;5094374;28;20027;-46
2020/12/31 04:54:43;;;;;;;12.55;3.55;;;25.50;41.90;;;;;;5094124;28;20051;-45
2020/12/31 04:57:10;;;;;;;9.63;3.38;;;25.60;41.80;;;;;;5094429;28;20570;-45
2020/12/31 04:59:36;;;;;;;9.60;2.97;;;25.70;41.70;;;;;;5093684;28;20035;-44
2020/12/31 05:02:06;;;;;;;13.55;3.42;;;25.80;41.60;;;;;;5094293;28;20024;-44
2020/12/31 05:04:33;;;;;;;11.63;3.28;;;25.90;41.60;;;;;;5094152;28;20024;-44
2020/12/31 05:06:59;;;;;;;9.93;3.33;;;25.90;41.40;;;;;;5094130;28;20051;-44
2020/12/31 05:09:26;;;;;;;7.63;2.88;;;26.10;41.50;;;;;;5094004;28;20051;-44
2020/12/31 05:11:54;;;;;;;9.50;3.55;;;26.10;41.40;;;;;;5094066;28;20027;-45
2020/12/31 05:14:48;;;;;;;7.93;2.75;;;26.20;41.30;;;;;;5093815;28;20024;-44
2020/12/31 05:17:21;;;;;;;8.30;3.10;;;26.30;41.40;;;;;;5090239;28;20089;-44
2020/12/31 05:19:47;;;;;;;10.77;3.20;;;26.40;41.10;;;;;;5094025;28;20103;-45
2020/12/31 05:22:20;;;;;;;9.90;3.28;;;26.60;41.00;;;;;;5093930;28;20064;-44
2020/12/31 05:24:51;;;;;;;11.50;3.38;;;26.60;40.70;;;;;;5093025;28;20020;-44
2020/12/31 05:27:26;;;;;;;8.50;3.33;;;26.70;40.80;;;;;;5090332;28;20028;-43
2020/12/31 05:30:01;;;;;;;11.73;3.40;;;26.80;40.70;;;;;;5094290;28;20408;-44
2020/12/31 05:32:33;;;;;;;6.47;2.90;;;26.90;40.60;;;;;;5094324;28;20119;-46
2020/12/31 05:35:00;;;;;;;7.60;3.00;;;27.00;40.50;;;;;;5093963;28;20482;-45
2020/12/31 05:37:28;;;;;;;8.70;3.15;;;27.00;40.30;;;;;;5093425;28;20036;-44
2020/12/31 05:39:56;;;;;;;9.27;3.30;;;27.10;40.20;;;;;;5093203;28;20093;-43
2020/12/31 05:42:23;;;;;;;11.00;3.55;;;27.20;40.30;;;;;;5093720;28;20484;-46
2020/12/31 05:45:03;;;;;;;6.78;3.15;;;27.20;40.10;;;;;;5094569;28;20059;-46
2020/12/31 05:47:30;;;;;;;7.22;3.00;;;27.30;40.20;;;;;;5092194;28;20035;-46
2020/12/31 05:49:57;;;;;;;11.18;2.97;;;27.30;40.10;;;;;;5093854;28;20023;-46
2020/12/31 05:52:38;;;;;;;5.72;2.80;;;27.30;40.10;;;;;;5092576;28;20043;-44
2020/12/31 05:55:08;;;;;;;9.55;3.15;;;27.30;40.00;;;;;;5093749;28;20028;-45
2020/12/31 05:57:44;;;;;;;6.20;3.47;;;27.30;40.00;;;;;;5091981;28;20500;-46
2020/12/31 06:00:17;;;;;;;7.03;3.20;;;27.30;39.90;;;;;;5093009;28;20028;-45
2020/12/31 06:02:47;;;;;;;8.50;2.95;;;27.30;40.00;;;;;;5092916;28;20131;-45
2020/12/31 06:05:15;;;;;;;11.38;3.33;;;27.30;40.00;;;;;;5093555;28;20028;-45
2020/12/31 06:07:44;;;;;;;10.65;2.95;;;27.30;40.00;;;;;;5093451;28;20036;-45
2020/12/31 06:10:12;;;;;;;8.93;3.38;;;27.20;40.00;;;;;;5093506;28;20024;-45
2020/12/31 06:12:51;;;;;;;8.45;3.20;;;27.20;40.00;;;;;;5092565;28;20029;-46
2020/12/31 06:15:22;;;;;;;7.65;3.40;;;27.10;39.90;;;;;;5094104;28;20027;-45
2020/12/31 06:17:49;;;;;;;;;;;27.10;40.00;;;;;;5094136;28;20032;-45
2020/12/31 06:20:18;;;;;;;9.43;3.25;;;27.10;40.60;;;;;;5093413;28;19905;-45
2020/12/31 06:23:07;;;;;;;7.25;3.00;;;27.10;40.20;;;;;;5093369;28;20028;-45
2020/12/31 06:25:48;;;;;;;6.20;2.80;;;27.10;40.30;;;;;;5093175;28;20028;-44
2020/12/31 06:28:15;;;;;;;10.00;2.92;;;27.00;40.20;;;;;;5076739;28;20031;-44
2020/12/31 06:30:48;;;;;;;8.65;3.22;;;27.00;40.20;;;;;;5093638;28;20028;-45
2020/12/31 06:33:31;;;;;;;6.65;3.03;;;27.00;40.20;;;;;;5093621;28;20115;-45
2020/12/31 06:36:03;;;;;;;7.40;3.03;;;27.00;40.30;;;;;;5092916;28;20028;-45
2020/12/31 06:38:42;;;;;;;13.40;3.40;;;27.00;40.30;;;;;;5092804;28;20428;-45
2020/12/31 06:41:38;;;;;;;7.53;3.30;;;27.00;40.20;;;;;;5094556;28;20036;-45
2020/12/31 06:44:13;;;;;;;8.25;3.20;;;27.00;40.40;;;;;;5095085;28;20074;-45
2020/12/31 06:46:52;;;;;;;12.80;3.90;;;26.90;40.30;;;;;;5097498;28;20103;-46
2020/12/31 06:49:18;;;;;;;10.40;3.45;;;26.90;40.20;;;;;;5095001;28;20485;-45
2020/12/31 06:51:45;;;;;;;8.73;3.35;;;26.80;40.20;;;;;;5096365;28;20110;-45
2020/12/31 06:54:12;;;;;;;14.77;4.00;;;26.80;40.30;;;;;;5095828;28;20032;-46
2020/12/31 06:56:45;;;;;;;9.38;3.83;;;26.70;40.30;;;;;;5095519;28;20039;-46
2020/12/31 06:59:28;;;;;;;11.10;3.80;;;26.70;40.30;;;;;;5096009;28;20028;-46
2020/12/31 07:01:55;;;;;;;10.45;3.80;;;26.60;40.40;;;;;;5096041;28;20036;-45
2020/12/31 07:04:31;;;;;;;12.50;3.60;;;26.60;40.60;;;;;;5095946;28;20024;-46
2020/12/31 07:07:00;;;;;;;13.63;3.30;;;26.50;40.60;;;;;;5095556;28;20060;-46
2020/12/31 07:09:30;;;;;;;9.75;3.90;;;26.40;40.60;;;;;;5090645;28;20020;-45
2020/12/31 07:12:05;;;;;;;9.30;3.30;;;26.30;40.70;;;;;;5095068;28;20495;-45
2020/12/31 07:14:33;;;;;;;9.70;3.83;;;26.30;40.80;;;;;;5096177;28;20418;-44
2020/12/31 07:16:59;;;;;;;8.43;3.72;;;26.20;40.80;;;;;;5096323;28;20024;-45
2020/12/31 07:19:34;;;;;;;7.95;3.28;;;26.20;40.90;;;;;;5078080;28;20499;-44
2020/12/31 07:22:14;;;;;;;10.63;4.15;;;26.10;40.90;;;;;;5096580;28;20039;-45
2020/12/31 07:24:55;;;;;;;9.23;3.28;;;26.00;41.00;;;;;;5096798;28;20026;-45
2020/12/31 07:27:29;;;;;;;17.30;4.07;;;26.00;41.00;;;;;;5095477;28;20024;-45
2020/12/31 17:58:59;;;;;;;7.07;2.35;;;19.10;53.70;;;;;;5077206;23;20538;-47
2020/12/31 18:01:26;;;;;;;18.35;2.83;;;19.30;54.00;;;;;;4974490;28;20050;-47
2020/12/31 18:03:53;;;;;;;8.75;2.40;;;19.40;53.10;;;;;;4974844;28;20030;-47
2020/12/31 18:06:20;;;;;;;8.82;2.70;;;19.60;52.80;;;;;;4975127;28;20027;-47
2020/12/31 18:08:48;;;;;;;12.85;2.40;;;19.70;52.50;;;;;;4974710;28;20106;-47
2020/12/31 18:11:24;;;;;;;16.92;5.30;;;19.80;52.30;;;;;;4974156;28;20423;-48
2020/12/31 18:13:51;;;;;;;9.43;2.95;;;20.00;52.20;;;;;;4974149;28;20031;-47
2020/12/31 18:16:17;;;;;;;10.45;2.90;;;20.00;52.00;;;;;;4974639;28;20082;-48
2020/12/31 18:18:45;;;;;;;7.55;2.83;;;20.10;51.80;;;;;;4974664;28;20365;-47
2020/12/31 18:21:11;;;;;;;8.93;3.10;;;20.30;51.80;;;;;;4974708;28;20030;-47
2020/12/31 18:23:38;;;;;;;9.77;2.85;;;20.30;51.60;;;;;;4974710;28;20039;-47
2020/12/31 18:26:07;;;;;;;7.05;2.97;;;20.30;51.50;;;;;;4974409;28;20030;-47
2020/12/31 18:28:35;;;;;;;6.78;2.83;;;20.40;51.30;;;;;;4974607;28;20402;-47
2020/12/31 18:31:02;;;;;;;6.43;2.40;;;20.50;51.20;;;;;;4974855;28;20034;-47
2020/12/31 18:33:28;;;;;;;7.43;2.55;;;20.60;51.00;;;;;;4974561;28;20062;-47
2020/12/31 18:35:55;;;;;;;8.32;2.90;;;20.70;51.00;;;;;;4975717;28;20049;-47
2020/12/31 18:38:21;;;;;;;11.13;2.80;;;20.70;50.80;;;;;;4977546;28;20114;-48
2020/12/31 18:40:48;;;;;;;14.75;3.42;;;20.80;50.90;;;;;;4978120;28;20030;-47
2020/12/31 18:43:14;;;;;;;7.57;3.00;;;20.90;50.90;;;;;;4977614;28;20385;-47
2020/12/31 18:45:41;;;;;;;5.60;2.55;;;21.00;50.90;;;;;;4989407;28;20379;-48
2020/12/31 18:48:08;;;;;;;7.78;2.90;;;21.10;50.70;;;;;;4997679;28;20031;-47
2020/12/31 18:50:34;;;;;;;7.03;2.80;;;21.20;50.60;;;;;;4979475;28;20109;-47
2020/12/31 18:53:01;;;;;;;13.20;3.35;;;21.30;50.50;;;;;;4977573;28;20106;-48
2020/12/31 18:55:27;;;;;;;8.93;3.00;;;21.40;50.30;;;;;;4986897;28;20073;-47
2020/12/31 18:57:54;;;;;;;7.28;3.25;;;21.50;50.20;;;;;;4986109;28;20474;-47
2020/12/31 19:00:22;;;;;;;9.27;3.00;;;21.60;50.00;;;;;;4977827;28;20051;-48
2020/12/31 19:02:51;;;;;;;9.50;3.13;;;21.70;49.80;;;;;;4977741;28;20045;-49
2020/12/31 19:05:20;;;;;;;10.13;3.17;;;21.80;49.60;;;;;;4977656;28;20419;-48
2020/12/31 19:07:56;;;;;;;9.77;3.40;;;21.90;49.40;;;;;;4977621;28;20030;-48
2020/12/31 19:10:23;;;;;;;6.90;3.17;;;22.00;49.20;;;;;;4977560;28;20054;-47
2020/12/31 19:12:50;;;;;;;6.28;3.03;;;22.10;49.00;;;;;;4977223;28;20031;-47
2020/12/31 19:15:17;;;;;;;9.85;3.63;;;22.20;48.80;;;;;;4977414;28;20101;-48
2020/12/31 19:17:48;;;;;;;7.50;3.20;;;22.30;48.70;;;;;;4977411;28;20034;-48
2020/12/31 19:20:16;;;;;;;6.57;3.23;;;22.40;48.50;;;;;;4977669;28;20138;-48
2020/12/31 19:22:46;;;;;;;6.22;3.45;;;22.40;48.40;;;;;;4976543;28;20089;-48
2020/12/31 19:25:15;;;;;;;6.82;3.33;;;22.50;48.30;;;;;;4957942;28;20035;-48
2020/12/31 19:27:42;;;;;;;7.50;3.22;;;22.60;48.20;;;;;;4966249;28;20431;-48
2020/12/31 19:30:10;;;;;;;8.15;3.63;;;22.60;48.10;;;;;;4977156;28;20039;-48
2020/12/31 19:32:37;;;;;;;7.93;3.63;;;22.60;47.90;;;;;;4977429;28;20464;-48
2020/12/31 19:35:06;;;;;;;6.35;3.40;;;22.70;47.80;;;;;;4977059;28;20031;-48
2020/12/31 19:37:36;;;;;;;8.85;3.72;;;22.80;47.80;;;;;;4976825;28;20085;-48
2020/12/31 19:40:04;;;;;;;10.05;3.95;;;22.80;47.70;;;;;;4977299;28;20022;-47
2020/12/31 19:42:30;;;;;;;12.07;4.70;;;22.80;47.60;;;;;;4976892;28;20027;-47
2020/12/31 19:44:59;;;;;;;9.05;4.25;;;22.80;47.60;;;;;;4977140;28;20125;-47
2020/12/31 19:47:27;;;;;;;16.42;4.30;;;22.80;47.40;;;;;;4976681;28;20026;-46
2020/12/31 19:49:54;;;;;;;8.80;4.00;;;22.80;47.30;;;;;;4972767;28;20051;-47
2020/12/31 19:52:20;;;;;;;17.77;5.05;;;22.80;47.30;;;;;;4976195;28;20031;-46
2020/12/31 19:54:47;;;;;;;14.48;4.53;;;22.80;47.30;;;;;;4976278;28;20061;-46
2020/12/31 19:57:14;;;;;;;9.65;4.32;;;22.80;47.30;;;;;;4975731;28;20434;-47
2020/12/31 19:59:41;;;;;;;11.43;4.43;;;22.80;47.30;;;;;;4976401;28;20480;-47
2020/12/31 20:02:09;;;;;;;14.73;5.25;;;22.90;47.40;;;;;;4975936;28;20034;-47
2020/12/31 20:04:36;;;;;;;13.30;4.68;;;22.90;47.40;;;;;;4975790;28;20042;-46
2020/12/31 20:07:07;;;;;;;14.70;4.85;;;22.90;47.40;;;;;;4975903;28;20077;-46
2020/12/31 20:09:35;;;;;;;12.65;5.07;;;22.90;47.30;;;;;;4974195;28;20109;-46
2020/12/31 20:12:02;;;;;;;13.40;5.15;;;23.00;47.30;;;;;;4975324;28;20082;-46
2020/12/31 20:14:29;;;;;;;12.82;4.72;;;23.10;47.30;;;;;;4976317;28;20023;-47
2020/12/31 20:16:55;;;;;;;16.80;5.13;;;23.20;47.20;;;;;;4976026;28;20122;-47
2020/12/31 20:19:23;;;;;;;15.68;5.03;;;23.20;47.10;;;;;;4976023;28;20066;-47
2020/12/31 20:21:54;;;;;;;12.90;4.43;;;23.30;47.00;;;;;;4975751;28;20452;-47
2020/12/31 20:24:21;;;;;;;;;;;23.40;46.80;;;;;;4976118;28;20081;-47
2020/12/31 20:26:55;;;;;;;14.80;5.00;;;23.50;47.00;;;;;;4976163;28;20347;-48
2020/12/31 20:29:23;;;;;;;14.27;5.20;;;23.70;46.60;;;;;;4975718;28;20038;-47
2020/12/31 20:31:50;;;;;;;13.32;4.50;;;23.80;46.40;;;;;;4975958;28;20096;-48
2020/12/31 20:34:17;;;;;;;13.63;4.57;;;24.00;46.30;;;;;;4976030;28;20031;-48
2020/12/31 20:36:48;;;;;;;11.40;5.15;;;24.10;46.00;;;;;;4975970;28;20530;-47
2020/12/31 20:39:15;;;;;;;19.58;5.28;;;24.20;45.80;;;;;;4975535;28;20030;-49
2020/12/31 20:41:42;;;;;;;16.83;4.85;;;24.40;45.60;;;;;;4974006;28;20034;-47
2020/12/31 20:44:11;;;;;;;13.93;5.65;;;24.50;45.40;;;;;;4975175;28;20561;-47
2020/12/31 20:46:43;;;;;;;11.18;4.55;;;24.60;45.90;;;;;;4975692;28;20019;-47
2020/12/31 20:49:11;;;;;;;11.80;5.00;;;24.80;45.00;;;;;;4975745;28;20027;-47
2020/12/31 20:51:39;;;;;;;12.32;4.88;;;24.80;44.80;;;;;;4975514;28;20070;-47
2020/12/31 20:54:07;;;;;;;11.32;4.55;;;24.90;44.70;;;;;;4975387;28;20392;-47
2020/12/31 20:56:33;;;;;;;13.32;4.50;;;25.10;44.50;;;;;;4975902;28;20025;-47
2020/12/31 20:59:00;;;;;;;13.35;4.50;;;25.20;44.50;;;;;;4975006;28;20349;-47
2020/12/31 21:01:27;;;;;;;10.48;4.10;;;25.20;44.30;;;;;;4975297;28;20496;-47
2020/12/31 21:03:53;;;;;;;11.55;4.45;;;25.30;44.20;;;;;;4974544;28;20031;-48
2020/12/31 21:06:20;;;;;;;9.25;4.10;;;25.40;44.10;;;;;;4975496;28;20031;-48
2020/12/31 21:08:47;;;;;;;7.78;3.92;;;25.50;44.00;;;;;;4975345;28;20023;-48
2020/12/31 21:11:14;;;;;;;8.38;3.97;;;25.60;44.00;;;;;;4975348;28;20033;-48
2020/12/31 21:13:41;;;;;;;10.35;4.32;;;25.60;43.70;;;;;;4975371;28;20536;-48
2020/12/31 21:16:19;;;;;;;11.77;3.97;;;25.70;43.70;;;;;;4974595;28;20026;-47
2020/12/31 21:18:48;;;;;;;7.72;3.47;;;25.80;43.70;;;;;;4975042;28;20118;-47
2020/12/31 21:21:16;;;;;;;12.43;3.58;;;25.80;43.60;;;;;;4975405;28;20031;-47
2020/12/31 21:23:44;;;;;;;12.85;4.43;;;25.90;43.60;;;;;;4975073;28;20043;-47
2020/12/31 21:26:15;;;;;;;8.15;3.13;;;26.00;43.50;;;;;;4975158;28;20459;-47
2020/12/31 21:28:43;;;;;;;8.90;3.67;;;26.10;43.40;;;;;;4975199;28;20038;-47
2020/12/31 21:31:10;;;;;;;9.60;3.42;;;26.10;43.30;;;;;;4975054;28;20082;-47
2020/12/31 21:33:42;;;;;;;7.57;3.30;;;26.20;43.10;;;;;;4974683;28;20035;-47
2020/12/31 21:36:22;;;;;;;8.00;3.33;;;26.30;42.70;;;;;;4975079;28;20101;-47
2020/12/31 21:38:49;;;;;;;7.05;3.25;;;26.30;42.40;;;;;;4975066;28;20042;-47
2020/12/31 21:41:18;;;;;;;7.82;3.00;;;26.30;42.20;;;;;;4975040;28;20110;-47
2020/12/31 21:43:47;;;;;;;7.75;2.78;;;26.30;42.00;;;;;;4974919;28;20074;-47
2020/12/31 21:46:26;;;;;;;8.77;3.47;;;26.30;41.90;;;;;;4974607;28;20038;-47
2020/12/31 21:48:54;;;;;;;7.38;2.97;;;26.40;42.00;;;;;;4974666;28;20031;-47
2020/12/31 21:51:21;;;;;;;11.77;3.17;;;26.40;42.00;;;;;;4975197;28;20019;-47
2020/12/31 21:53:48;;;;;;;6.22;3.25;;;26.40;41.90;;;;;;4974933;28;20113;-47
2020/12/31 21:56:17;;;;;;;12.05;3.15;;;26.30;41.90;;;;;;4974536;28;20384;-47
2020/12/31 21:58:45;;;;;;;6.97;3.10;;;26.30;41.90;;;;;;4974313;28;20058;-47
2020/12/31 22:01:20;;;;;;;6.32;2.90;;;26.30;41.90;;;;;;4974851;28;20030;-47
2020/12/31 22:03:50;;;;;;;7.20;2.90;;;26.30;41.90;;;;;;4974767;28;20037;-47
2020/12/31 22:06:17;;;;;;;5.57;2.78;;;26.30;41.90;;;;;;4974796;28;20039;-47
2020/12/31 22:08:44;;;;;;;9.00;3.03;;;26.20;41.90;;;;;;4974791;28;20034;-47
2020/12/31 22:11:12;;;;;;;5.93;2.90;;;26.30;42.10;;;;;;4977826;28;20085;-47
2020/12/31 22:13:43;;;;;;;7.20;2.47;;;26.20;42.00;;;;;;4978514;28;20410;-47
2020/12/31 22:16:18;;;;;;;6.63;3.00;;;26.30;42.10;;;;;;4978490;28;20066;-47
2020/12/31 22:18:44;;;;;;;6.60;3.05;;;26.20;42.10;;;;;;4978442;28;20027;-47
2020/12/31 22:21:12;;;;;;;5.65;2.92;;;26.20;42.20;;;;;;4978144;28;20492;-47
2020/12/31 22:23:39;;;;;;;5.07;2.63;;;26.20;42.20;;;;;;4977952;28;20106;-47
2020/12/31 22:26:07;;;;;;;7.45;3.22;;;26.20;42.30;;;;;;4972666;28;20033;-46
2020/12/31 22:28:34;;;;;;;11.73;3.20;;;26.20;42.40;;;;;;4977635;28;20024;-48
2020/12/31 22:31:01;;;;;;;9.30;2.97;;;26.20;42.40;;;;;;4976735;28;20030;-49
2020/12/31 22:33:28;;;;;;;10.25;3.10;;;26.20;42.40;;;;;;4977359;28;20033;-48
2020/12/31 22:35:54;;;;;;;12.27;2.70;;;26.20;42.50;;;;;;4978428;28;20031;-48
2020/12/31 22:38:21;;;;;;;5.38;2.75;;;26.20;42.50;;;;;;4977897;28;20034;-48
2020/12/31 22:40:47;;;;;;;7.28;2.92;;;26.20;42.60;;;;;;4977749;28;20465;-48
2020/12/31 22:43:14;;;;;;;7.78;2.90;;;26.20;42.60;;;;;;4978031;28;20073;-48
2020/12/31 22:45:40;;;;;;;7.47;2.75;;;26.20;42.60;;;;;;4977945;28;20026;-48
2020/12/31 22:48:07;;;;;;;7.97;3.03;;;26.20;42.60;;;;;;4977969;28;20026;-48
2020/12/31 22:50:34;;;;;;;6.18;2.75;;;26.20;42.70;;;;;;4977894;28;20058;-48
2020/12/31 22:53:01;;;;;;;5.70;2.65;;;26.20;42.60;;;;;;4976758;28;20027;-49
2020/12/31 22:55:27;;;;;;;9.13;2.55;;;26.20;42.70;;;;;;4977528;28;20038;-48
2020/12/31 22:57:55;;;;;;;7.65;2.88;;;26.20;42.80;;;;;;4977643;28;20054;-47
2020/12/31 23:00:22;;;;;;;5.25;3.00;;;26.20;42.80;;;;;;4978098;28;20055;-47
2020/12/31 23:02:49;;;;;;;7.30;3.08;;;26.20;42.80;;;;;;4973613;28;20050;-47
2020/12/31 23:05:16;;;;;;;6.93;2.90;;;26.10;42.70;;;;;;4974986;28;20026;-47
2020/12/31 23:07:43;;;;;;;8.27;3.35;;;26.10;42.70;;;;;;4964699;28;20027;-48
2020/12/31 23:10:13;;;;;;;6.18;2.88;;;26.10;42.70;;;;;;4977240;28;20027;-47
2020/12/31 23:12:40;;;;;;;7.43;2.78;;;26.00;42.80;;;;;;4977631;28;20043;-47
2020/12/31 23:15:09;;;;;;;4.85;2.55;;;25.90;42.80;;;;;;4977776;28;20453;-47
2020/12/31 23:17:37;;;;;;;4.95;2.65;;;25.90;42.90;;;;;;4977465;28;20031;-47
2020/12/31 23:20:05;;;;;;;5.03;2.55;;;25.90;43.10;;;;;;4977703;28;20033;-47